sensor_id;sensor_type;location;lat;lon;timestamp;temperature;humidity
72114;SHT31;59989;46.220;19.888;2023-03-14T00:01:46;6.59;55.22
72114;SHT31;59989;46.220;19.888;2023-03-14T00:04:49;6.58;54.98
72114;SHT31;59989;46.220;19.888;2023-03-14T00:07:51;6.62;55.07
72114;SHT31;59989;46.220;19.888;2023-03-14T00:10:54;6.56;55.17
72114;SHT31;59989;46.220;19.888;2023-03-14T00:13:56;6.61;55.03
72114;SHT31;59989;46.220;19.888;2023-03-14T00:16:59;6.53;55.22
72114;SHT31;59989;46.220;19.888;2023-03-14T00:20:03;6.49;55.24
72114;SHT31;59989;46.220;19.888;2023-03-14T00:23:14;6.46;55.35
72114;SHT31;59989;46.220;19.888;2023-03-14T00:26:18;6.34;55.74
72114;SHT31;59989;46.220;19.888;2023-03-14T00:29:21;6.27;55.95
72114;SHT31;59989;46.220;19.888;2023-03-14T00:32:24;6.24;56.17
72114;SHT31;59989;46.220;19.888;2023-03-14T00:35:26;6.25;56.26
72114;SHT31;59989;46.220;19.888;2023-03-14T00:38:30;6.21;56.32
72114;SHT31;59989;46.220;19.888;2023-03-14T00:41:33;6.14;56.69
72114;SHT31;59989;46.220;19.888;2023-03-14T00:44:36;6.17;56.56
72114;SHT31;59989;46.220;19.888;2023-03-14T00:47:41;6.13;56.75
72114;SHT31;59989;46.220;19.888;2023-03-14T00:50:49;6.11;57.09
72114;SHT31;59989;46.220;19.888;2023-03-14T00:53:51;6.00;57.54
72114;SHT31;59989;46.220;19.888;2023-03-14T00:56:54;6.03;57.23
72114;SHT31;59989;46.220;19.888;2023-03-14T00:59:57;6.00;57.77
72114;SHT31;59989;46.220;19.888;2023-03-14T01:03:00;6.07;57.54
72114;SHT31;59989;46.220;19.888;2023-03-14T01:06:16;6.04;57.94
72114;SHT31;59989;46.220;19.888;2023-03-14T01:09:19;5.89;58.34
72114;SHT31;59989;46.220;19.888;2023-03-14T01:12:22;5.86;58.67
72114;SHT31;59989;46.220;19.888;2023-03-14T01:15:25;5.85;59.07
72114;SHT31;59989;46.220;19.888;2023-03-14T01:18:27;5.76;59.48
72114;SHT31;59989;46.220;19.888;2023-03-14T01:21:32;5.80;59.44
72114;SHT31;59989;46.220;19.888;2023-03-14T01:24:37;5.79;59.82
72114;SHT31;59989;46.220;19.888;2023-03-14T01:27:39;5.76;59.93
72114;SHT31;59989;46.220;19.888;2023-03-14T01:30:43;5.77;60.12
72114;SHT31;59989;46.220;19.888;2023-03-14T01:33:47;5.77;60.62
72114;SHT31;59989;46.220;19.888;2023-03-14T01:36:50;5.73;60.57
72114;SHT31;59989;46.220;19.888;2023-03-14T01:39:53;5.76;60.85
72114;SHT31;59989;46.220;19.888;2023-03-14T01:42:57;5.82;60.82
72114;SHT31;59989;46.220;19.888;2023-03-14T01:49:20;5.76;60.97
72114;SHT31;59989;46.220;19.888;2023-03-14T01:52:40;5.79;61.38
72114;SHT31;59989;46.220;19.888;2023-03-14T01:55:45;5.83;61.38
72114;SHT31;59989;46.220;19.888;2023-03-14T01:58:50;5.74;61.39
72114;SHT31;59989;46.220;19.888;2023-03-14T02:01:54;5.73;61.59
72114;SHT31;59989;46.220;19.888;2023-03-14T02:04:58;5.76;61.64
72114;SHT31;59989;46.220;19.888;2023-03-14T02:08:10;5.76;61.95
72114;SHT31;59989;46.220;19.888;2023-03-14T02:11:21;5.76;61.71
72114;SHT31;59989;46.220;19.888;2023-03-14T02:14:37;5.77;61.97
72114;SHT31;59989;46.220;19.888;2023-03-14T02:17:59;5.74;62.16
72114;SHT31;59989;46.220;19.888;2023-03-14T02:21:54;5.77;62.47
72114;SHT31;59989;46.220;19.888;2023-03-14T02:28:32;5.79;62.24
72114;SHT31;59989;46.220;19.888;2023-03-14T02:31:37;5.86;62.04
72114;SHT31;59989;46.220;19.888;2023-03-14T02:34:42;5.96;61.91
72114;SHT31;59989;46.220;19.888;2023-03-14T02:37:55;5.94;61.95
72114;SHT31;59989;46.220;19.888;2023-03-14T02:41:02;6.01;61.59
72114;SHT31;59989;46.220;19.888;2023-03-14T02:44:09;6.03;61.73
72114;SHT31;59989;46.220;19.888;2023-03-14T02:47:12;6.07;61.69
72114;SHT31;59989;46.220;19.888;2023-03-14T02:50:20;6.03;61.94
72114;SHT31;59989;46.220;19.888;2023-03-14T02:53:27;6.04;62.00
72114;SHT31;59989;46.220;19.888;2023-03-14T02:56:33;6.07;62.00
72114;SHT31;59989;46.220;19.888;2023-03-14T02:59:37;5.99;62.01
72114;SHT31;59989;46.220;19.888;2023-03-14T03:02:47;5.99;62.58
72114;SHT31;59989;46.220;19.888;2023-03-14T03:05:51;6.07;62.15
72114;SHT31;59989;46.220;19.888;2023-03-14T03:08:54;6.00;62.30
72114;SHT31;59989;46.220;19.888;2023-03-14T03:11:57;6.03;62.08
72114;SHT31;59989;46.220;19.888;2023-03-14T03:15:02;6.07;61.83
72114;SHT31;59989;46.220;19.888;2023-03-14T03:18:05;6.06;62.12
72114;SHT31;59989;46.220;19.888;2023-03-14T03:21:07;6.06;61.94
72114;SHT31;59989;46.220;19.888;2023-03-14T03:24:11;6.04;62.03
72114;SHT31;59989;46.220;19.888;2023-03-14T03:27:14;6.06;61.87
72114;SHT31;59989;46.220;19.888;2023-03-14T03:30:17;6.06;62.06
72114;SHT31;59989;46.220;19.888;2023-03-14T03:33:20;6.06;61.87
72114;SHT31;59989;46.220;19.888;2023-03-14T03:36:25;6.03;62.02
72114;SHT31;59989;46.220;19.888;2023-03-14T03:39:28;6.10;61.99
72114;SHT31;59989;46.220;19.888;2023-03-14T03:42:32;6.13;61.49
72114;SHT31;59989;46.220;19.888;2023-03-14T03:45:35;6.13;61.84
72114;SHT31;59989;46.220;19.888;2023-03-14T03:48:40;6.04;62.02
72114;SHT31;59989;46.220;19.888;2023-03-14T03:51:43;6.10;61.85
72114;SHT31;59989;46.220;19.888;2023-03-14T03:54:46;6.09;61.89
72114;SHT31;59989;46.220;19.888;2023-03-14T03:57:48;6.16;61.82
72114;SHT31;59989;46.220;19.888;2023-03-14T04:00:52;6.17;61.49
72114;SHT31;59989;46.220;19.888;2023-03-14T04:03:55;6.20;61.58
72114;SHT31;59989;46.220;19.888;2023-03-14T04:06:58;6.21;61.16
72114;SHT31;59989;46.220;19.888;2023-03-14T04:10:01;6.28;61.00
72114;SHT31;59989;46.220;19.888;2023-03-14T04:13:14;6.32;60.60
72114;SHT31;59989;46.220;19.888;2023-03-14T04:16:24;6.34;60.51
72114;SHT31;59989;46.220;19.888;2023-03-14T04:19:33;6.40;60.11
72114;SHT31;59989;46.220;19.888;2023-03-14T04:22:36;6.38;60.14
72114;SHT31;59989;46.220;19.888;2023-03-14T04:25:39;6.42;60.25
72114;SHT31;59989;46.220;19.888;2023-03-14T04:28:43;6.38;60.38
72114;SHT31;59989;46.220;19.888;2023-03-14T04:31:45;6.35;60.77
72114;SHT31;59989;46.220;19.888;2023-03-14T04:34:48;6.42;60.33
72114;SHT31;59989;46.220;19.888;2023-03-14T04:37:51;6.46;59.53
72114;SHT31;59989;46.220;19.888;2023-03-14T04:40:55;6.52;59.49
72114;SHT31;59989;46.220;19.888;2023-03-14T04:44:03;6.51;59.38
72114;SHT31;59989;46.220;19.888;2023-03-14T04:47:06;6.56;59.13
72114;SHT31;59989;46.220;19.888;2023-03-14T04:50:10;6.58;59.20
72114;SHT31;59989;46.220;19.888;2023-03-14T04:53:16;6.58;59.41
72114;SHT31;59989;46.220;19.888;2023-03-14T04:56:21;6.59;59.33
72114;SHT31;59989;46.220;19.888;2023-03-14T04:59:24;6.59;59.40
72114;SHT31;59989;46.220;19.888;2023-03-14T05:02:29;6.56;59.73
72114;SHT31;59989;46.220;19.888;2023-03-14T05:05:46;6.56;59.51
72114;SHT31;59989;46.220;19.888;2023-03-14T05:09:11;6.59;59.57
72114;SHT31;59989;46.220;19.888;2023-03-14T05:12:20;6.64;59.43
72114;SHT31;59989;46.220;19.888;2023-03-14T05:15:31;6.62;59.57
72114;SHT31;59989;46.220;19.888;2023-03-14T05:19:12;6.56;60.10
72114;SHT31;59989;46.220;19.888;2023-03-14T05:22:47;6.59;59.81
72114;SHT31;59989;46.220;19.888;2023-03-14T05:26:15;6.58;59.85
72114;SHT31;59989;46.220;19.888;2023-03-14T05:29:32;6.65;59.67
72114;SHT31;59989;46.220;19.888;2023-03-14T05:32:54;6.69;59.46
72114;SHT31;59989;46.220;19.888;2023-03-14T05:36:15;6.73;59.32
72114;SHT31;59989;46.220;19.888;2023-03-14T05:39:44;6.75;59.41
72114;SHT31;59989;46.220;19.888;2023-03-14T05:43:07;6.71;59.74
72114;SHT31;59989;46.220;19.888;2023-03-14T05:46:16;6.73;59.55
72114;SHT31;59989;46.220;19.888;2023-03-14T05:49:45;6.76;59.56
72114;SHT31;59989;46.220;19.888;2023-03-14T05:53:05;6.82;59.66
72114;SHT31;59989;46.220;19.888;2023-03-14T05:56:24;6.86;59.66
72114;SHT31;59989;46.220;19.888;2023-03-14T05:59:47;6.95;59.16
72114;SHT31;59989;46.220;19.888;2023-03-14T06:03:10;7.04;59.11
72114;SHT31;59989;46.220;19.888;2023-03-14T06:06:17;7.03;58.88
72114;SHT31;59989;46.220;19.888;2023-03-14T06:09:20;7.13;58.95
72114;SHT31;59989;46.220;19.888;2023-03-14T06:12:27;7.11;58.92
72114;SHT31;59989;46.220;19.888;2023-03-14T06:15:31;7.17;59.00
72114;SHT31;59989;46.220;19.888;2023-03-14T06:18:35;7.24;58.69
72114;SHT31;59989;46.220;19.888;2023-03-14T06:21:41;7.34;58.45
72114;SHT31;59989;46.220;19.888;2023-03-14T06:24:44;7.40;58.35
72114;SHT31;59989;46.220;19.888;2023-03-14T06:27:47;7.48;57.94
72114;SHT31;59989;46.220;19.888;2023-03-14T06:30:51;7.54;58.16
72114;SHT31;59989;46.220;19.888;2023-03-14T06:33:53;7.61;57.87
72114;SHT31;59989;46.220;19.888;2023-03-14T06:36:59;7.68;57.45
72114;SHT31;59989;46.220;19.888;2023-03-14T06:40:01;7.78;57.42
72114;SHT31;59989;46.220;19.888;2023-03-14T06:43:23;7.85;57.42
72114;SHT31;59989;46.220;19.888;2023-03-14T06:46:26;7.93;56.72
72114;SHT31;59989;46.220;19.888;2023-03-14T06:49:29;8.14;56.82
72114;SHT31;59989;46.220;19.888;2023-03-14T06:52:34;8.17;56.87
72114;SHT31;59989;46.220;19.888;2023-03-14T06:55:37;8.29;55.66
72114;SHT31;59989;46.220;19.888;2023-03-14T06:58:40;8.40;55.72
72114;SHT31;59989;46.220;19.888;2023-03-14T07:01:44;8.53;55.35
72114;SHT31;59989;46.220;19.888;2023-03-14T07:04:47;8.60;55.06
72114;SHT31;59989;46.220;19.888;2023-03-14T07:07:50;8.75;54.43
72114;SHT31;59989;46.220;19.888;2023-03-14T07:10:56;8.84;54.79
72114;SHT31;59989;46.220;19.888;2023-03-14T07:13:59;8.92;54.77
72114;SHT31;59989;46.220;19.888;2023-03-14T07:17:02;8.92;54.58
72114;SHT31;59989;46.220;19.888;2023-03-14T07:20:06;9.01;53.95
72114;SHT31;59989;46.220;19.888;2023-03-14T07:23:10;9.06;53.87
72114;SHT31;59989;46.220;19.888;2023-03-14T07:26:21;8.98;53.73
72114;SHT31;59989;46.220;19.888;2023-03-14T07:29:28;9.04;53.98
72114;SHT31;59989;46.220;19.888;2023-03-14T07:32:31;9.16;53.70
72114;SHT31;59989;46.220;19.888;2023-03-14T07:35:33;9.11;53.89
72114;SHT31;59989;46.220;19.888;2023-03-14T07:38:36;9.29;53.72
72114;SHT31;59989;46.220;19.888;2023-03-14T07:41:56;9.42;53.28
72114;SHT31;59989;46.220;19.888;2023-03-14T07:45:27;9.54;53.07
72114;SHT31;59989;46.220;19.888;2023-03-14T07:48:30;9.48;53.20
72114;SHT31;59989;46.220;19.888;2023-03-14T07:51:32;9.55;52.97
72114;SHT31;59989;46.220;19.888;2023-03-14T07:54:35;9.64;52.81
72114;SHT31;59989;46.220;19.888;2023-03-14T07:57:37;9.90;52.59
72114;SHT31;59989;46.220;19.888;2023-03-14T08:00:41;10.21;51.76
72114;SHT31;59989;46.220;19.888;2023-03-14T08:03:43;10.32;51.69
72114;SHT31;59989;46.220;19.888;2023-03-14T08:06:46;10.35;51.73
72114;SHT31;59989;46.220;19.888;2023-03-14T08:09:49;10.52;51.17
72114;SHT31;59989;46.220;19.888;2023-03-14T08:12:55;10.60;51.10
72114;SHT31;59989;46.220;19.888;2023-03-14T08:15:58;10.79;50.22
72114;SHT31;59989;46.220;19.888;2023-03-14T08:19:01;10.94;50.49
72114;SHT31;59989;46.220;19.888;2023-03-14T08:22:04;11.21;50.11
72114;SHT31;59989;46.220;19.888;2023-03-14T08:25:07;11.06;49.93
72114;SHT31;59989;46.220;19.888;2023-03-14T08:28:10;11.08;49.27
72114;SHT31;59989;46.220;19.888;2023-03-14T08:31:12;11.19;49.51
72114;SHT31;59989;46.220;19.888;2023-03-14T08:34:15;11.19;49.83
72114;SHT31;59989;46.220;19.888;2023-03-14T08:37:18;11.35;48.83
72114;SHT31;59989;46.220;19.888;2023-03-14T08:40:28;11.58;48.21
72114;SHT31;59989;46.220;19.888;2023-03-14T08:43:31;11.96;48.03
72114;SHT31;59989;46.220;19.888;2023-03-14T08:46:33;12.38;46.85
72114;SHT31;59989;46.220;19.888;2023-03-14T08:49:36;12.49;46.81
72114;SHT31;59989;46.220;19.888;2023-03-14T08:52:38;12.33;47.30
72114;SHT31;59989;46.220;19.888;2023-03-14T08:55:42;12.40;47.13
72114;SHT31;59989;46.220;19.888;2023-03-14T08:58:45;12.55;46.86
72114;SHT31;59989;46.220;19.888;2023-03-14T09:01:47;12.93;45.86
72114;SHT31;59989;46.220;19.888;2023-03-14T09:04:51;13.14;45.35
72114;SHT31;59989;46.220;19.888;2023-03-14T09:07:53;13.74;44.85
72114;SHT31;59989;46.220;19.888;2023-03-14T09:10:56;13.94;44.42
72114;SHT31;59989;46.220;19.888;2023-03-14T09:13:59;13.40;44.91
72114;SHT31;59989;46.220;19.888;2023-03-14T09:17:03;13.62;44.97
72114;SHT31;59989;46.220;19.888;2023-03-14T09:20:06;13.82;44.39
72114;SHT31;59989;46.220;19.888;2023-03-14T09:23:10;14.08;44.27
72114;SHT31;59989;46.220;19.888;2023-03-14T09:26:12;14.32;43.38
72114;SHT31;59989;46.220;19.888;2023-03-14T09:29:15;14.44;42.62
72114;SHT31;59989;46.220;19.888;2023-03-14T09:32:17;14.50;43.82
72114;SHT31;59989;46.220;19.888;2023-03-14T09:35:20;14.44;43.45
72114;SHT31;59989;46.220;19.888;2023-03-14T09:38:23;14.83;43.10
72114;SHT31;59989;46.220;19.888;2023-03-14T09:41:33;15.50;42.52
72114;SHT31;59989;46.220;19.888;2023-03-14T09:44:39;15.80;41.05
72114;SHT31;59989;46.220;19.888;2023-03-14T09:47:45;16.33;40.24
72114;SHT31;59989;46.220;19.888;2023-03-14T09:51:05;16.75;39.35
72114;SHT31;59989;46.220;19.888;2023-03-14T09:54:22;17.06;38.98
72114;SHT31;59989;46.220;19.888;2023-03-14T09:57:33;17.37;39.27
72114;SHT31;59989;46.220;19.888;2023-03-14T10:00:37;17.49;38.77
72114;SHT31;59989;46.220;19.888;2023-03-14T10:03:42;17.02;39.70
72114;SHT31;59989;46.220;19.888;2023-03-14T10:06:47;17.37;38.69
72114;SHT31;59989;46.220;19.888;2023-03-14T10:09:51;17.30;38.88
72114;SHT31;59989;46.220;19.888;2023-03-14T10:13:10;17.34;39.51
72114;SHT31;59989;46.220;19.888;2023-03-14T10:16:13;17.65;38.92
72114;SHT31;59989;46.220;19.888;2023-03-14T10:19:17;17.65;38.88
72114;SHT31;59989;46.220;19.888;2023-03-14T10:22:21;17.23;39.92
72114;SHT31;59989;46.220;19.888;2023-03-14T10:25:28;17.76;37.88
72114;SHT31;59989;46.220;19.888;2023-03-14T10:28:44;17.69;37.97
72114;SHT31;59989;46.220;19.888;2023-03-14T10:31:53;18.27;38.19
72114;SHT31;59989;46.220;19.888;2023-03-14T10:35:23;17.99;38.28
72114;SHT31;59989;46.220;19.888;2023-03-14T10:38:31;18.00;38.09
72114;SHT31;59989;46.220;19.888;2023-03-14T10:41:34;17.52;39.27
72114;SHT31;59989;46.220;19.888;2023-03-14T10:44:37;17.13;39.71
72114;SHT31;59989;46.220;19.888;2023-03-14T10:47:48;17.39;39.79
72114;SHT31;59989;46.220;19.888;2023-03-14T10:50:58;17.17;40.33
72114;SHT31;59989;46.220;19.888;2023-03-14T10:54:19;17.39;40.29
72114;SHT31;59989;46.220;19.888;2023-03-14T10:57:22;17.09;40.29
72114;SHT31;59989;46.220;19.888;2023-03-14T11:00:25;17.13;39.58
72114;SHT31;59989;46.220;19.888;2023-03-14T11:03:31;17.03;39.40
72114;SHT31;59989;46.220;19.888;2023-03-14T11:09:56;19.06;36.93
72114;SHT31;59989;46.220;19.888;2023-03-14T11:13:16;19.64;36.00
72114;SHT31;59989;46.220;19.888;2023-03-14T11:16:43;19.30;36.29
72114;SHT31;59989;46.220;19.888;2023-03-14T11:30:42;20.14;34.64
72114;SHT31;59989;46.220;19.888;2023-03-14T11:37:04;18.22;37.69
72114;SHT31;59989;46.220;19.888;2023-03-14T11:46:38;19.29;35.58
72114;SHT31;59989;46.220;19.888;2023-03-14T11:49:47;18.75;36.92
72114;SHT31;59989;46.220;19.888;2023-03-14T11:53:05;20.77;33.59
72114;SHT31;59989;46.220;19.888;2023-03-14T11:56:16;21.66;32.65
72114;SHT31;59989;46.220;19.888;2023-03-14T11:59:28;21.51;33.37
72114;SHT31;59989;46.220;19.888;2023-03-14T12:06:13;20.80;33.34
72114;SHT31;59989;46.220;19.888;2023-03-14T12:09:20;22.92;29.96
72114;SHT31;59989;46.220;19.888;2023-03-14T12:12:26;22.76;30.06
72114;SHT31;59989;46.220;19.888;2023-03-14T12:15:30;22.25;29.67
72114;SHT31;59989;46.220;19.888;2023-03-14T12:18:38;24.39;28.11
72114;SHT31;59989;46.220;19.888;2023-03-14T12:21:49;24.39;27.85
72114;SHT31;59989;46.220;19.888;2023-03-14T12:25:03;23.66;28.20
72114;SHT31;59989;46.220;19.888;2023-03-14T12:28:31;25.11;26.70
72114;SHT31;59989;46.220;19.888;2023-03-14T12:31:47;25.25;26.38
72114;SHT31;59989;46.220;19.888;2023-03-14T12:34:50;24.39;27.89
72114;SHT31;59989;46.220;19.888;2023-03-14T12:37:55;25.06;27.12
72114;SHT31;59989;46.220;19.888;2023-03-14T12:41:20;25.32;25.99
72114;SHT31;59989;46.220;19.888;2023-03-14T12:50:53;25.10;26.68
72114;SHT31;59989;46.220;19.888;2023-03-14T13:01:17;25.69;25.53
72114;SHT31;59989;46.220;19.888;2023-03-14T13:04:27;27.55;23.32
72114;SHT31;59989;46.220;19.888;2023-03-14T13:10:49;26.89;24.17
72114;SHT31;59989;46.220;19.888;2023-03-14T13:13:57;27.64;24.05
72114;SHT31;59989;46.220;19.888;2023-03-14T13:17:00;27.63;23.85
72114;SHT31;59989;46.220;19.888;2023-03-14T13:20:31;27.53;23.57
72114;SHT31;59989;46.220;19.888;2023-03-14T13:23:36;28.52;22.82
72114;SHT31;59989;46.220;19.888;2023-03-14T13:26:41;27.87;23.30
72114;SHT31;59989;46.220;19.888;2023-03-14T13:29:48;27.98;22.97
72114;SHT31;59989;46.220;19.888;2023-03-14T13:32:53;26.81;23.96
72114;SHT31;59989;46.220;19.888;2023-03-14T13:36:01;27.54;23.69
72114;SHT31;59989;46.220;19.888;2023-03-14T13:39:13;26.98;23.72
72114;SHT31;59989;46.220;19.888;2023-03-14T13:42:17;27.78;23.02
72114;SHT31;59989;46.220;19.888;2023-03-14T13:45:19;26.75;24.29
72114;SHT31;59989;46.220;19.888;2023-03-14T13:48:26;26.86;24.45
72114;SHT31;59989;46.220;19.888;2023-03-14T13:51:29;24.93;25.86
72114;SHT31;59989;46.220;19.888;2023-03-14T13:54:34;23.82;27.53
72114;SHT31;59989;46.220;19.888;2023-03-14T13:57:45;22.39;29.44
72114;SHT31;59989;46.220;19.888;2023-03-14T14:01:16;21.06;31.06
72114;SHT31;59989;46.220;19.888;2023-03-14T14:04:23;20.97;31.49
72114;SHT31;59989;46.220;19.888;2023-03-14T14:07:27;20.77;31.63
72114;SHT31;59989;46.220;19.888;2023-03-14T14:10:31;20.39;32.05
72114;SHT31;59989;46.220;19.888;2023-03-14T14:13:34;20.30;32.67
72114;SHT31;59989;46.220;19.888;2023-03-14T14:16:37;20.14;32.58
72114;SHT31;59989;46.220;19.888;2023-03-14T14:19:41;20.26;32.65
72114;SHT31;59989;46.220;19.888;2023-03-14T14:22:44;20.46;32.64
72114;SHT31;59989;46.220;19.888;2023-03-14T14:25:49;20.09;32.30
72114;SHT31;59989;46.220;19.888;2023-03-14T14:29:03;20.39;31.96
72114;SHT31;59989;46.220;19.888;2023-03-14T14:32:14;21.92;30.06
72114;SHT31;59989;46.220;19.888;2023-03-14T14:35:34;20.98;30.95
72114;SHT31;59989;46.220;19.888;2023-03-14T14:38:37;21.30;31.09
72114;SHT31;59989;46.220;19.888;2023-03-14T14:41:41;22.44;29.70
72114;SHT31;59989;46.220;19.888;2023-03-14T14:44:44;21.81;30.78
72114;SHT31;59989;46.220;19.888;2023-03-14T14:47:55;20.45;32.07
72114;SHT31;59989;46.220;19.888;2023-03-14T14:51:02;20.26;32.78
72114;SHT31;59989;46.220;19.888;2023-03-14T14:54:15;20.43;32.28
72114;SHT31;59989;46.220;19.888;2023-03-14T15:00:29;20.45;32.80
72114;SHT31;59989;46.220;19.888;2023-03-14T15:03:33;19.70;32.73
72114;SHT31;59989;46.220;19.888;2023-03-14T15:06:36;19.46;32.96
72114;SHT31;59989;46.220;19.888;2023-03-14T15:09:42;19.49;33.50
72114;SHT31;59989;46.220;19.888;2023-03-14T15:12:44;19.82;32.58
72114;SHT31;59989;46.220;19.888;2023-03-14T15:15:47;19.75;33.11
72114;SHT31;59989;46.220;19.888;2023-03-14T15:18:56;19.56;33.19
72114;SHT31;59989;46.220;19.888;2023-03-14T15:21:59;19.49;33.72
72114;SHT31;59989;46.220;19.888;2023-03-14T15:25:01;19.23;34.18
72114;SHT31;59989;46.220;19.888;2023-03-14T15:28:22;18.69;34.50
72114;SHT31;59989;46.220;19.888;2023-03-14T15:31:25;18.64;35.19
72114;SHT31;59989;46.220;19.888;2023-03-14T15:34:27;18.65;35.32
72114;SHT31;59989;46.220;19.888;2023-03-14T15:37:30;18.48;35.41
72114;SHT31;59989;46.220;19.888;2023-03-14T15:40:35;18.26;36.29
72114;SHT31;59989;46.220;19.888;2023-03-14T15:43:37;18.07;36.75
72114;SHT31;59989;46.220;19.888;2023-03-14T15:46:40;17.85;36.76
72114;SHT31;59989;46.220;19.888;2023-03-14T15:49:42;17.74;37.11
72114;SHT31;59989;46.220;19.888;2023-03-14T15:52:45;17.59;36.59
72114;SHT31;59989;46.220;19.888;2023-03-14T15:55:48;17.47;37.05
72114;SHT31;59989;46.220;19.888;2023-03-14T15:58:50;17.39;37.04
72114;SHT31;59989;46.220;19.888;2023-03-14T16:01:53;17.27;37.34
72114;SHT31;59989;46.220;19.888;2023-03-14T16:04:55;17.11;37.95
72114;SHT31;59989;46.220;19.888;2023-03-14T16:07:58;17.10;37.71
72114;SHT31;59989;46.220;19.888;2023-03-14T16:11:03;16.96;37.77
72114;SHT31;59989;46.220;19.888;2023-03-14T16:14:06;16.84;38.46
72114;SHT31;59989;46.220;19.888;2023-03-14T16:17:08;16.77;38.89
72114;SHT31;59989;46.220;19.888;2023-03-14T16:20:13;16.63;39.42
72114;SHT31;59989;46.220;19.888;2023-03-14T16:23:15;16.52;39.78
72114;SHT31;59989;46.220;19.888;2023-03-14T16:26:20;16.35;40.50
72114;SHT31;59989;46.220;19.888;2023-03-14T16:29:22;16.17;41.54
72114;SHT31;59989;46.220;19.888;2023-03-14T16:32:25;15.97;42.41
72114;SHT31;59989;46.220;19.888;2023-03-14T16:35:28;15.80;43.15
72114;SHT31;59989;46.220;19.888;2023-03-14T16:38:31;15.66;43.66
72114;SHT31;59989;46.220;19.888;2023-03-14T16:41:54;15.47;44.10
72114;SHT31;59989;46.220;19.888;2023-03-14T16:45:00;15.38;44.30
72114;SHT31;59989;46.220;19.888;2023-03-14T16:48:02;15.29;44.36
72114;SHT31;59989;46.220;19.888;2023-03-14T16:51:05;15.22;44.37
72114;SHT31;59989;46.220;19.888;2023-03-14T16:54:08;15.12;44.69
72114;SHT31;59989;46.220;19.888;2023-03-14T16:57:11;15.05;44.79
72114;SHT31;59989;46.220;19.888;2023-03-14T17:00:14;14.99;44.65
72114;SHT31;59989;46.220;19.888;2023-03-14T17:03:17;14.94;45.12
72114;SHT31;59989;46.220;19.888;2023-03-14T17:06:25;14.87;45.25
72114;SHT31;59989;46.220;19.888;2023-03-14T17:09:28;14.78;45.56
72114;SHT31;59989;46.220;19.888;2023-03-14T17:12:33;14.70;45.96
72114;SHT31;59989;46.220;19.888;2023-03-14T17:15:36;14.61;45.94
72114;SHT31;59989;46.220;19.888;2023-03-14T17:18:38;14.50;46.35
72114;SHT31;59989;46.220;19.888;2023-03-14T17:21:41;14.29;46.21
72114;SHT31;59989;46.220;19.888;2023-03-14T17:24:43;14.15;46.41
72114;SHT31;59989;46.220;19.888;2023-03-14T17:27:46;14.02;46.67
72114;SHT31;59989;46.220;19.888;2023-03-14T17:30:49;13.86;46.68
72114;SHT31;59989;46.220;19.888;2023-03-14T17:33:52;13.75;47.06
72114;SHT31;59989;46.220;19.888;2023-03-14T17:36:56;13.65;47.26
72114;SHT31;59989;46.220;19.888;2023-03-14T17:39:59;13.51;47.38
72114;SHT31;59989;46.220;19.888;2023-03-14T17:43:03;13.37;47.78
72114;SHT31;59989;46.220;19.888;2023-03-14T17:46:08;13.24;48.08
72114;SHT31;59989;46.220;19.888;2023-03-14T17:49:13;13.17;48.19
72114;SHT31;59989;46.220;19.888;2023-03-14T17:52:16;13.07;48.46
72114;SHT31;59989;46.220;19.888;2023-03-14T17:55:19;12.96;49.03
72114;SHT31;59989;46.220;19.888;2023-03-14T17:58:22;12.88;49.06
72114;SHT31;59989;46.220;19.888;2023-03-14T18:01:25;12.81;49.12
72114;SHT31;59989;46.220;19.888;2023-03-14T18:04:29;12.75;49.66
72114;SHT31;59989;46.220;19.888;2023-03-14T18:07:35;12.71;49.53
72114;SHT31;59989;46.220;19.888;2023-03-14T18:10:41;12.62;49.62
72114;SHT31;59989;46.220;19.888;2023-03-14T18:13:45;12.61;49.72
72114;SHT31;59989;46.220;19.888;2023-03-14T18:16:48;12.58;49.77
72114;SHT31;59989;46.220;19.888;2023-03-14T18:19:53;12.54;49.95
72114;SHT31;59989;46.220;19.888;2023-03-14T18:22:57;12.48;50.19
72114;SHT31;59989;46.220;19.888;2023-03-14T18:26:03;12.44;50.08
72114;SHT31;59989;46.220;19.888;2023-03-14T18:29:06;12.33;50.57
72114;SHT31;59989;46.220;19.888;2023-03-14T18:32:09;12.27;50.96
72114;SHT31;59989;46.220;19.888;2023-03-14T18:35:12;12.21;51.13
72114;SHT31;59989;46.220;19.888;2023-03-14T18:38:15;12.17;50.73
72114;SHT31;59989;46.220;19.888;2023-03-14T18:41:18;12.12;51.44
72114;SHT31;59989;46.220;19.888;2023-03-14T18:44:24;12.04;51.60
72114;SHT31;59989;46.220;19.888;2023-03-14T18:47:27;12.00;51.55
72114;SHT31;59989;46.220;19.888;2023-03-14T18:50:31;11.97;51.47
72114;SHT31;59989;46.220;19.888;2023-03-14T18:53:35;11.93;51.33
72114;SHT31;59989;46.220;19.888;2023-03-14T18:56:39;12.04;50.61
72114;SHT31;59989;46.220;19.888;2023-03-14T18:59:43;12.01;50.67
72114;SHT31;59989;46.220;19.888;2023-03-14T19:02:45;11.98;51.05
72114;SHT31;59989;46.220;19.888;2023-03-14T19:05:48;11.90;50.97
72114;SHT31;59989;46.220;19.888;2023-03-14T19:08:51;11.89;51.20
72114;SHT31;59989;46.220;19.888;2023-03-14T19:11:54;11.82;51.51
72114;SHT31;59989;46.220;19.888;2023-03-14T19:14:57;11.77;51.81
72114;SHT31;59989;46.220;19.888;2023-03-14T19:18:00;11.70;51.69
72114;SHT31;59989;46.220;19.888;2023-03-14T19:21:06;11.65;51.68
72114;SHT31;59989;46.220;19.888;2023-03-14T19:24:11;11.63;51.59
72114;SHT31;59989;46.220;19.888;2023-03-14T19:27:18;11.66;51.40
72114;SHT31;59989;46.220;19.888;2023-03-14T19:30:22;11.62;51.39
72114;SHT31;59989;46.220;19.888;2023-03-14T19:33:25;11.51;51.63
72114;SHT31;59989;46.220;19.888;2023-03-14T19:36:30;11.36;52.08
72114;SHT31;59989;46.220;19.888;2023-03-14T19:39:33;11.31;53.57
72114;SHT31;59989;46.220;19.888;2023-03-14T19:42:36;11.34;53.40
72114;SHT31;59989;46.220;19.888;2023-03-14T19:45:40;11.49;51.98
72114;SHT31;59989;46.220;19.888;2023-03-14T19:48:45;11.36;51.90
72114;SHT31;59989;46.220;19.888;2023-03-14T19:51:48;11.42;52.46
72114;SHT31;59989;46.220;19.888;2023-03-14T19:54:51;11.56;51.36
72114;SHT31;59989;46.220;19.888;2023-03-14T19:57:53;11.66;51.10
72114;SHT31;59989;46.220;19.888;2023-03-14T20:00:57;11.45;52.56
72114;SHT31;59989;46.220;19.888;2023-03-14T20:04:00;11.63;50.61
72114;SHT31;59989;46.220;19.888;2023-03-14T20:07:06;11.51;51.28
72114;SHT31;59989;46.220;19.888;2023-03-14T20:10:10;11.38;51.37
72114;SHT31;59989;46.220;19.888;2023-03-14T20:13:16;11.28;52.60
72114;SHT31;59989;46.220;19.888;2023-03-14T20:16:24;11.08;53.17
72114;SHT31;59989;46.220;19.888;2023-03-14T20:19:27;10.94;52.83
72114;SHT31;59989;46.220;19.888;2023-03-14T20:22:31;11.19;53.29